Time;durP1;ratioP1;P1;durP2;ratioP2;P2;SDS_P1;SDS_P2;PMS_P1;PMS_P2;Temp;Humidity;BMP_temperature;BMP_pressure;BME280_temperature;BME280_humidity;BME280_pressure;Samples;Min_cycle;Max_cycle;Signal;HPM_P1;HPM_P2
2022/01/17 00:01:58;;;;;;;16.10;8.93;;;-1.50;79.20;;;;;;6184800;23;19997;-68
2022/01/17 00:04:24;;;;;;;15.73;9.43;;;-1.40;79.50;;;;;;6184618;23;20004;-69
2022/01/17 00:06:50;;;;;;;15.55;9.27;;;-1.50;79.40;;;;;;6184644;23;20080;-69
2022/01/17 00:09:16;;;;;;;18.08;10.20;;;-1.50;79.60;;;;;;6184586;23;20005;-69
2022/01/17 00:11:44;;;;;;;18.17;9.43;;;-1.50;79.70;;;;;;6184572;23;20542;-68
2022/01/17 00:14:14;;;;;;;16.40;10.15;;;-1.50;80.00;;;;;;6184386;23;20005;-69
2022/01/17 00:16:49;;;;;;;16.52;9.77;;;-1.50;80.20;;;;;;6184674;23;20008;-69
2022/01/17 00:21:44;;;;;;;18.52;9.95;;;-1.60;80.40;;;;;;6194528;23;20127;-68
2022/01/17 00:24:09;;;;;;;19.40;10.75;;;-1.60;80.60;;;;;;6184506;23;20048;-68
2022/01/17 00:26:35;;;;;;;19.50;10.70;;;-1.50;80.30;;;;;;6184407;23;20349;-67
2022/01/17 00:29:00;;;;;;;17.88;10.32;;;-1.60;80.50;;;;;;6184610;23;20005;-69
2022/01/17 00:31:26;;;;;;;18.10;9.95;;;-1.60;80.60;;;;;;6184469;23;20004;-70
2022/01/17 00:33:52;;;;;;;17.30;10.82;;;-1.70;80.90;;;;;;6184396;23;20009;-69
2022/01/17 00:36:17;;;;;;;18.15;10.65;;;-1.70;81.20;;;;;;6186864;23;20017;-69
2022/01/17 00:38:43;;;;;;;19.30;11.50;;;-1.80;81.40;;;;;;6214514;23;20475;-68
2022/01/17 00:41:09;;;;;;;18.20;11.00;;;-1.70;81.50;;;;;;6214406;23;19997;-69
2022/01/17 00:43:35;;;;;;;19.70;11.48;;;-1.70;81.40;;;;;;6214230;23;20067;-69
2022/01/17 00:46:01;;;;;;;17.33;10.40;;;-1.70;81.50;;;;;;6214344;23;20028;-69
2022/01/17 00:48:27;;;;;;;21.30;11.15;;;-1.70;81.80;;;;;;6214043;23;20070;-68
2022/01/17 00:50:52;;;;;;;18.05;10.70;;;-1.70;81.60;;;;;;6214248;23;20306;-70
2022/01/17 00:53:18;;;;;;;16.70;10.48;;;-1.80;81.70;;;;;;6214144;23;20413;-69
2022/01/17 00:55:44;;;;;;;17.20;10.73;;;-1.80;81.80;;;;;;6214255;23;20501;-69
2022/01/17 00:58:10;;;;;;;20.05;11.73;;;-1.70;81.90;;;;;;6212867;23;20012;-70
2022/01/17 01:00:36;;;;;;;17.17;11.10;;;-1.80;81.80;;;;;;6214297;23;20031;-69
2022/01/17 01:03:03;;;;;;;19.30;11.20;;;-1.70;81.70;;;;;;6214095;23;20005;-68
2022/01/17 01:05:29;;;;;;;20.50;12.02;;;-1.80;82.00;;;;;;6214116;23;20054;-69
2022/01/17 01:07:54;;;;;;;19.45;10.80;;;-1.80;82.10;;;;;;6214019;23;20001;-68
2022/01/17 01:10:20;;;;;;;19.35;11.25;;;-1.80;82.10;;;;;;6214250;23;20011;-69
2022/01/17 01:12:48;;;;;;;19.80;11.40;;;-1.80;81.80;;;;;;6214043;23;20001;-68
2022/01/17 01:15:20;;;;;;;18.50;11.43;;;-1.80;81.80;;;;;;6213956;23;20003;-69
2022/01/17 01:17:51;;;;;;;20.23;11.10;;;-1.80;81.80;;;;;;6214350;23;20657;-69
2022/01/17 01:28:21;;;;;;;19.60;11.32;;;-1.80;82.00;;;;;;6213829;23;20096;-68
2022/01/17 01:30:50;;;;;;;19.85;11.02;;;-1.80;82.20;;;;;;6214033;23;20032;-68
2022/01/17 01:33:23;;;;;;;18.63;11.85;;;-2.00;82.50;;;;;;6213902;23;20380;-69
2022/01/17 01:35:56;;;;;;;21.95;11.68;;;-2.00;82.60;;;;;;6202350;23;20009;-70
2022/01/17 01:38:22;;;;;;;18.85;10.98;;;-2.10;82.90;;;;;;6157519;23;20005;-69
2022/01/17 01:40:48;;;;;;;19.25;11.43;;;-2.10;82.90;;;;;;6183750;23;20008;-69
2022/01/17 01:43:13;;;;;;;19.95;11.50;;;-2.10;83.00;;;;;;6183551;23;20055;-69
2022/01/17 01:45:39;;;;;;;17.10;11.80;;;-2.10;83.00;;;;;;6183773;23;20409;-69
2022/01/17 01:48:08;;;;;;;18.92;11.77;;;-2.10;83.00;;;;;;6183700;23;20429;-69
2022/01/17 01:50:34;;;;;;;20.38;11.60;;;-2.10;83.20;;;;;;6183712;23;20027;-68
2022/01/17 01:52:59;;;;;;;19.58;11.60;;;-2.20;83.30;;;;;;6183570;23;20005;-69
2022/01/17 01:55:25;;;;;;;19.38;12.13;;;-2.30;83.50;;;;;;6183625;23;20370;-68
2022/01/17 01:57:51;;;;;;;19.92;12.18;;;-2.30;83.60;;;;;;6183723;23;20008;-70
2022/01/17 02:00:17;;;;;;;21.60;12.27;;;-2.30;83.60;;;;;;6183555;23;20031;-69
2022/01/17 02:02:43;;;;;;;20.35;11.82;;;-2.20;83.60;;;;;;6157435;23;20012;-69
2022/01/17 02:05:09;;;;;;;18.10;11.63;;;-2.30;83.50;;;;;;6183798;23;20009;-69
2022/01/17 02:07:35;;;;;;;18.58;11.93;;;-2.30;83.40;;;;;;6183637;23;20005;-68
2022/01/17 02:10:03;;;;;;;20.05;11.68;;;-2.30;83.90;;;;;;6183692;23;20005;-69
2022/01/17 02:12:29;;;;;;;20.27;11.93;;;-2.30;83.40;;;;;;6183342;23;20329;-69
2022/01/17 02:14:56;;;;;;;23.73;12.30;;;-2.20;83.30;;;;;;6157556;23;20005;-69
2022/01/17 02:17:23;;;;;;;19.05;11.98;;;-2.30;83.70;;;;;;6183469;23;20001;-71
2022/01/17 02:20:03;;;;;;;22.48;12.52;;;-2.30;83.40;;;;;;6183466;23;20036;-68
2022/01/17 02:22:28;;;;;;;19.63;11.60;;;-2.30;83.40;;;;;;6157113;23;20002;-68
2022/01/17 02:24:54;;;;;;;22.08;12.02;;;-2.30;83.50;;;;;;6183454;23;20107;-69
2022/01/17 02:27:20;;;;;;;23.00;13.38;;;-2.30;83.30;;;;;;6183500;23;19997;-68
2022/01/17 02:29:45;;;;;;;19.88;11.93;;;-2.20;83.40;;;;;;6183560;23;19997;-69
2022/01/17 02:32:12;;;;;;;20.42;12.55;;;-2.30;83.30;;;;;;6183519;23;20004;-68
2022/01/17 02:34:42;;;;;;;20.10;11.88;;;-2.30;83.20;;;;;;6183574;23;20321;-69
2022/01/17 02:37:09;;;;;;;20.88;11.90;;;-2.30;83.40;;;;;;6183608;23;20013;-69
2022/01/17 02:39:35;;;;;;;19.85;11.98;;;-2.30;83.30;;;;;;6183457;23;20005;-70
2022/01/17 02:42:02;;;;;;;19.42;11.70;;;-2.20;83.30;;;;;;6183326;23;20009;-69
2022/01/17 02:44:28;;;;;;;21.15;12.20;;;-2.30;83.40;;;;;;6157191;23;20340;-69
2022/01/17 02:46:54;;;;;;;19.35;11.68;;;-2.20;83.60;;;;;;6183468;23;20029;-70
2022/01/17 02:49:19;;;;;;;19.77;12.05;;;-2.30;83.70;;;;;;6183167;23;20012;-68
2022/01/17 02:51:48;;;;;;;20.20;12.05;;;-2.30;83.80;;;;;;6183592;23;20012;-70
2022/01/17 02:54:15;;;;;;;18.77;11.65;;;-2.30;83.80;;;;;;6183175;23;20422;-69
2022/01/17 02:56:41;;;;;;;20.48;11.95;;;-2.30;83.90;;;;;;6183312;23;20084;-70
2022/01/17 02:59:07;;;;;;;19.20;11.88;;;-2.30;83.80;;;;;;6183257;23;20025;-68
2022/01/17 03:01:33;;;;;;;20.00;12.57;;;-2.30;83.50;;;;;;6183409;23;20068;-69
2022/01/17 03:03:59;;;;;;;22.27;12.55;;;-2.20;83.50;;;;;;6183421;23;20001;-69
2022/01/17 03:06:27;;;;;;;19.80;12.32;;;-2.20;83.10;;;;;;6183513;23;20336;-69
2022/01/17 03:08:54;;;;;;;21.80;12.38;;;-2.20;82.90;;;;;;6184975;23;20008;-69
2022/01/17 03:11:27;;;;;;;20.33;12.27;;;-2.20;82.90;;;;;;6185068;23;20005;-69
2022/01/17 03:13:53;;;;;;;21.00;12.38;;;-2.10;82.70;;;;;;6184974;23;20001;-69
2022/01/17 03:16:33;;;;;;;19.65;12.10;;;-2.00;82.40;;;;;;6185054;23;20043;-68
2022/01/17 03:18:59;;;;;;;21.40;12.25;;;-2.00;82.10;;;;;;6185101;23;19997;-69
2022/01/17 03:21:27;;;;;;;20.77;12.82;;;-2.00;82.20;;;;;;6185080;23;20001;-70
2022/01/17 03:23:53;;;;;;;20.20;12.35;;;-2.00;82.20;;;;;;6184838;23;20028;-68
2022/01/17 03:26:19;;;;;;;23.90;13.10;;;-2.00;82.30;;;;;;6184975;23;20005;-69
2022/01/17 03:28:44;;;;;;;20.23;11.90;;;-2.00;82.10;;;;;;6185093;23;20008;-69
2022/01/17 03:31:11;;;;;;;24.38;13.32;;;-2.00;82.30;;;;;;6185190;23;20391;-68
2022/01/17 03:33:37;;;;;;;23.52;13.48;;;-2.00;82.00;;;;;;6185002;23;20001;-68
2022/01/17 03:36:04;;;;;;;22.13;13.00;;;-1.90;81.60;;;;;;6181696;23;20019;-68
2022/01/17 03:38:32;;;;;;;24.35;13.32;;;-1.80;81.40;;;;;;6215172;23;20368;-69
2022/01/17 03:40:59;;;;;;;21.65;12.85;;;-1.80;81.10;;;;;;6214980;23;20004;-68
2022/01/17 03:43:27;;;;;;;23.42;12.98;;;-1.80;80.70;;;;;;6214987;23;20524;-68
2022/01/17 03:45:52;;;;;;;23.85;13.43;;;-1.70;80.10;;;;;;6214784;23;19997;-69
2022/01/17 03:48:19;;;;;;;25.38;14.63;;;-1.70;80.40;;;;;;6214926;23;20004;-69
2022/01/17 03:50:45;;;;;;;25.95;14.88;;;-1.60;80.10;;;;;;6214625;23;20054;-69
2022/01/17 03:53:11;;;;;;;23.13;14.25;;;-1.60;80.20;;;;;;6214916;23;20373;-70
2022/01/17 03:55:37;;;;;;;26.38;14.98;;;-1.70;80.50;;;;;;6213336;23;20005;-69
2022/01/17 03:58:05;;;;;;;22.92;14.30;;;-1.60;80.30;;;;;;6214778;23;20329;-68
2022/01/17 04:00:34;;;;;;;25.30;14.55;;;-1.60;80.20;;;;;;6215103;23;20011;-69
2022/01/17 04:03:00;;;;;;;22.58;14.32;;;-1.60;80.30;;;;;;6214796;23;20000;-68
2022/01/17 04:05:26;;;;;;;23.50;13.48;;;-1.60;80.00;;;;;;6214859;23;20015;-69
2022/01/17 04:07:51;;;;;;;24.67;13.05;;;-1.50;79.50;;;;;;6214925;23;20004;-68
2022/01/17 04:10:17;;;;;;;24.05;13.15;;;-1.50;79.00;;;;;;6214688;23;20028;-68
2022/01/17 04:12:44;;;;;;;21.75;12.95;;;-1.40;78.50;;;;;;6214510;23;20004;-69
2022/01/17 04:15:11;;;;;;;22.88;13.05;;;-1.40;78.40;;;;;;6214686;23;20015;-69
2022/01/17 04:17:39;;;;;;;21.95;12.60;;;-1.40;77.90;;;;;;6214804;23;20025;-68
2022/01/17 04:20:09;;;;;;;22.67;12.55;;;-1.40;77.70;;;;;;6214458;23;20008;-68
2022/01/17 04:22:43;;;;;;;23.38;13.18;;;-1.30;77.50;;;;;;6214718;23;20086;-68
2022/01/17 04:25:10;;;;;;;21.83;13.13;;;-1.20;77.10;;;;;;6214643;23;20132;-68
2022/01/17 04:27:37;;;;;;;22.10;12.73;;;-1.20;76.70;;;;;;6214387;23;20005;-69
2022/01/17 04:30:06;;;;;;;22.08;12.95;;;-1.20;76.70;;;;;;6213158;23;19996;-70
2022/01/17 04:32:32;;;;;;;20.63;11.90;;;-1.10;76.40;;;;;;6214184;23;20005;-69
2022/01/17 04:34:58;;;;;;;23.25;12.85;;;-1.10;76.50;;;;;;6213366;23;20007;-69
2022/01/17 04:37:24;;;;;;;22.63;12.45;;;-1.10;76.00;;;;;;6184159;23;20076;-69
2022/01/17 04:39:49;;;;;;;26.02;12.55;;;-1.10;76.00;;;;;;6184338;23;20008;-72
2022/01/17 04:42:17;;;;;;;22.58;12.65;;;-1.10;76.10;;;;;;6183994;23;20047;-68
2022/01/17 04:47:31;;;;;;;25.02;13.30;;;-0.90;75.10;;;;;;6184286;23;20016;-70
2022/01/17 04:49:57;;;;;;;20.48;11.88;;;-0.90;74.90;;;;;;6184137;23;20079;-68
2022/01/17 04:52:23;;;;;;;22.38;12.90;;;-0.90;74.90;;;;;;6184483;23;20001;-69
2022/01/17 04:54:59;;;;;;;27.00;13.85;;;-0.90;75.00;;;;;;6184873;23;20007;-68
2022/01/17 04:57:25;;;;;;;23.73;13.07;;;-0.90;75.30;;;;;;6184389;23;20024;-69
2022/01/17 04:59:51;;;;;;;26.65;14.48;;;-0.80;74.50;;;;;;6184221;23;20361;-69
2022/01/17 05:02:17;;;;;;;28.83;14.90;;;-0.80;74.10;;;;;;6184036;23;20437;-69
2022/01/17 05:04:47;;;;;;;24.85;13.15;;;-0.70;73.80;;;;;;6157919;23;20012;-69
2022/01/17 05:07:14;;;;;;;24.20;13.50;;;-0.80;73.90;;;;;;6183784;23;20079;-69
2022/01/17 05:09:42;;;;;;;29.05;15.18;;;-0.60;73.00;;;;;;6184079;23;20139;-68
2022/01/17 05:12:09;;;;;;;26.98;14.55;;;-0.60;72.60;;;;;;6183857;23;20001;-69
2022/01/17 05:14:35;;;;;;;23.88;13.05;;;-0.60;72.70;;;;;;6157574;23;20045;-70
2022/01/17 05:17:09;;;;;;;30.00;15.55;;;-0.70;73.20;;;;;;6183860;23;20073;-67
2022/01/17 05:19:48;;;;;;;27.45;15.70;;;-0.60;73.20;;;;;;6183901;23;20384;-69
2022/01/17 05:22:20;;;;;;;30.23;15.60;;;-0.60;73.00;;;;;;6183782;23;20001;-69
2022/01/17 05:24:47;;;;;;;28.53;17.20;;;-0.60;73.40;;;;;;6183821;23;20005;-68
2022/01/17 05:27:13;;;;;;;33.03;17.35;;;-0.70;73.70;;;;;;6183645;23;20376;-69
2022/01/17 05:29:39;;;;;;;30.92;17.20;;;-0.70;73.60;;;;;;6157494;23;20417;-69
2022/01/17 05:32:05;;;;;;;33.45;16.77;;;-0.60;73.50;;;;;;6183577;23;20005;-69
2022/01/17 05:34:34;;;;;;;30.02;15.85;;;-0.60;73.70;;;;;;6183511;23;20005;-70
2022/01/17 05:37:01;;;;;;;29.67;16.70;;;-0.60;73.50;;;;;;6203910;23;20052;-69
2022/01/17 05:39:27;;;;;;;30.05;15.75;;;-0.70;73.70;;;;;;6214222;23;20017;-69
2022/01/17 05:41:53;;;;;;;27.25;14.68;;;-0.80;73.80;;;;;;6213783;23;20080;-70
2022/01/17 05:44:19;;;;;;;25.88;13.60;;;-0.80;73.70;;;;;;6213715;23;20059;-69
2022/01/17 05:46:44;;;;;;;27.05;14.73;;;-0.80;73.90;;;;;;6213200;23;20273;-70
2022/01/17 05:49:10;;;;;;;26.50;14.30;;;-0.70;73.60;;;;;;6212148;23;20077;-69
2022/01/17 05:51:35;;;;;;;23.55;12.85;;;-0.70;73.50;;;;;;6213336;23;20001;-70
2022/01/17 05:54:01;;;;;;;25.50;13.15;;;-0.70;73.20;;;;;;6212964;23;20005;-69
2022/01/17 05:56:27;;;;;;;24.98;12.80;;;-0.60;72.60;;;;;;6213854;23;20107;-68
2022/01/17 05:58:52;;;;;;;22.60;12.63;;;-0.60;72.30;;;;;;6213239;23;19996;-69
2022/01/17 06:01:18;;;;;;;23.25;13.07;;;-0.60;72.10;;;;;;6213141;23;20001;-69
2022/01/17 06:03:44;;;;;;;23.73;11.85;;;-0.50;71.30;;;;;;6213721;23;20008;-68
2022/01/17 06:06:09;;;;;;;24.10;12.05;;;-0.40;71.00;;;;;;6213771;23;20004;-68
2022/01/17 06:08:35;;;;;;;20.65;11.57;;;-0.40;70.20;;;;;;6213496;23;20011;-68
2022/01/17 06:11:01;;;;;;;22.25;11.82;;;-0.30;69.90;;;;;;6213446;23;20001;-69
2022/01/17 06:13:27;;;;;;;18.98;11.43;;;-0.40;70.30;;;;;;6211679;23;20008;-69
2022/01/17 06:15:53;;;;;;;21.58;11.95;;;-0.40;70.10;;;;;;6213436;23;20051;-70
2022/01/17 06:18:18;;;;;;;24.45;11.43;;;-0.30;70.10;;;;;;6213483;23;20004;-68
2022/01/17 06:20:44;;;;;;;21.05;12.02;;;-0.20;69.80;;;;;;6211935;23;20011;-70
2022/01/17 06:23:10;;;;;;;23.95;12.25;;;-0.30;69.50;;;;;;6211288;23;20444;-68
2022/01/17 06:25:35;;;;;;;21.20;12.25;;;-0.30;70.10;;;;;;6213085;23;20005;-69
2022/01/17 06:28:01;;;;;;;20.20;11.35;;;-0.30;69.80;;;;;;6213342;23;20000;-68
2022/01/17 06:30:27;;;;;;;21.50;12.45;;;-0.30;69.70;;;;;;6213235;23;20293;-69
2022/01/17 06:32:52;;;;;;;25.27;12.65;;;-0.20;69.60;;;;;;6213175;23;20004;-69
2022/01/17 06:35:19;;;;;;;24.23;12.85;;;-0.20;69.20;;;;;;6208145;23;20071;-69
2022/01/17 06:37:46;;;;;;;23.67;13.43;;;-0.20;69.30;;;;;;6183506;23;20088;-69
2022/01/17 06:40:12;;;;;;;26.35;14.05;;;-0.20;69.40;;;;;;6183333;23;19997;-68
2022/01/17 06:42:38;;;;;;;27.60;15.05;;;-0.10;69.30;;;;;;6183856;23;20001;-68
2022/01/17 06:45:05;;;;;;;28.88;15.88;;;0.00;68.90;;;;;;6185317;23;20312;-69
2022/01/17 06:47:36;;;;;;;27.92;15.55;;;-0.10;69.20;;;;;;6185041;23;20020;-70
2022/01/17 06:50:04;;;;;;;23.92;13.13;;;-0.10;69.20;;;;;;6184599;23;20004;-70
2022/01/17 06:52:30;;;;;;;26.50;13.13;;;-0.10;69.10;;;;;;6185269;23;19997;-70
2022/01/17 06:54:56;;;;;;;21.02;12.48;;;-0.10;69.20;;;;;;6158759;23;20340;-68
2022/01/17 06:57:23;;;;;;;21.67;12.60;;;0.00;69.00;;;;;;6184983;23;20001;-68
2022/01/17 06:59:49;;;;;;;24.25;12.98;;;0.10;68.70;;;;;;6184864;23;20001;-69
2022/01/17 07:02:15;;;;;;;20.40;12.52;;;0.10;68.60;;;;;;6158735;23;20001;-69
2022/01/17 07:04:41;;;;;;;23.67;12.68;;;0.00;68.90;;;;;;6185041;23;20008;-70
2022/01/17 07:07:08;;;;;;;20.88;11.60;;;0.10;68.90;;;;;;6158344;23;20013;-71
2022/01/17 07:09:36;;;;;;;22.80;12.98;;;0.10;69.10;;;;;;6185083;23;20001;-70
2022/01/17 07:12:02;;;;;;;20.55;11.63;;;0.10;69.20;;;;;;6184464;23;20028;-69
2022/01/17 07:14:28;;;;;;;23.10;12.48;;;0.10;69.20;;;;;;6158017;23;20001;-69
2022/01/17 07:16:54;;;;;;;23.58;12.15;;;0.10;68.80;;;;;;6185176;23;20055;-70
2022/01/17 07:19:20;;;;;;;22.90;12.70;;;0.10;69.10;;;;;;6185323;23;20386;-70
2022/01/17 07:21:48;;;;;;;23.30;12.70;;;0.10;69.20;;;;;;6184924;23;20175;-71
2022/01/17 07:24:14;;;;;;;24.85;13.07;;;0.20;69.20;;;;;;6158852;23;20011;-69
2022/01/17 07:26:40;;;;;;;21.77;12.32;;;0.30;69.10;;;;;;6184923;23;20108;-69
2022/01/17 07:29:08;;;;;;;20.80;12.00;;;0.30;68.80;;;;;;6184884;23;20076;-69
2022/01/17 07:31:34;;;;;;;25.73;13.25;;;0.40;68.70;;;;;;6185584;23;20005;-69
2022/01/17 07:34:00;;;;;;;20.17;12.00;;;0.30;68.80;;;;;;6185481;23;20023;-69
2022/01/17 07:36:25;;;;;;;21.75;12.07;;;0.30;68.90;;;;;;6184349;23;20449;-68
2022/01/17 07:38:51;;;;;;;23.25;13.02;;;0.30;68.90;;;;;;6184609;23;20001;-70
2022/01/17 07:41:17;;;;;;;23.75;13.32;;;0.40;68.90;;;;;;6184644;23;20001;-69
2022/01/17 07:43:43;;;;;;;22.35;12.52;;;0.50;68.50;;;;;;6184374;23;20047;-70
2022/01/17 07:46:24;;;;;;;23.67;13.27;;;0.50;68.90;;;;;;6184177;23;20052;-70
2022/01/17 07:49:09;;;;;;;25.73;12.85;;;0.60;68.60;;;;;;6184372;23;20024;-70
2022/01/17 07:51:36;;;;;;;22.75;13.38;;;0.60;68.60;;;;;;6184527;23;20087;-69
2022/01/17 07:54:03;;;;;;;22.27;12.80;;;0.70;68.30;;;;;;6184404;23;20060;-69
2022/01/17 07:56:30;;;;;;;22.63;13.75;;;0.70;68.20;;;;;;6184404;23;20009;-69
2022/01/17 07:58:56;;;;;;;24.20;13.75;;;0.80;68.10;;;;;;6184474;23;20008;-70
2022/01/17 08:01:22;;;;;;;25.95;13.35;;;0.90;68.00;;;;;;6184230;23;20001;-70
2022/01/17 08:03:48;;;;;;;23.75;13.95;;;1.00;68.00;;;;;;6184453;23;20008;-69
2022/01/17 08:06:13;;;;;;;26.75;14.20;;;1.10;67.70;;;;;;6184704;23;20314;-69
2022/01/17 08:08:39;;;;;;;23.63;13.20;;;1.20;67.20;;;;;;6184446;23;20471;-69
2022/01/17 08:11:05;;;;;;;25.33;12.65;;;1.30;67.20;;;;;;6184084;23;20012;-68
2022/01/17 08:13:30;;;;;;;24.35;13.30;;;1.30;67.10;;;;;;6184031;23;20067;-69
2022/01/17 08:15:56;;;;;;;26.48;13.23;;;1.40;67.30;;;;;;6157766;23;20005;-69
2022/01/17 08:18:22;;;;;;;24.92;13.40;;;1.40;67.70;;;;;;6184414;23;20052;-69
2022/01/17 08:20:47;;;;;;;22.40;13.10;;;1.40;68.30;;;;;;6184125;23;20338;-69
2022/01/17 08:23:13;;;;;;;26.33;14.50;;;1.40;68.60;;;;;;6184056;23;20009;-69
2022/01/17 08:25:39;;;;;;;24.20;13.40;;;1.30;69.20;;;;;;6183996;23;20349;-68
2022/01/17 08:28:05;;;;;;;20.60;11.70;;;1.30;69.40;;;;;;6183962;23;20337;-68
2022/01/17 08:30:32;;;;;;;22.65;13.40;;;1.20;69.70;;;;;;6183935;23;20032;-69
2022/01/17 08:32:59;;;;;;;22.83;12.75;;;1.30;70.00;;;;;;6183794;23;20072;-69
2022/01/17 08:35:25;;;;;;;22.58;12.23;;;1.30;70.30;;;;;;6183547;23;20024;-69
2022/01/17 08:37:50;;;;;;;23.27;12.68;;;1.30;70.50;;;;;;6184021;23;20325;-68
2022/01/17 08:40:18;;;;;;;25.42;13.38;;;1.20;70.70;;;;;;6183917;23;20425;-68
2022/01/17 08:42:45;;;;;;;21.67;12.00;;;1.30;71.00;;;;;;6183924;23;20097;-68
2022/01/17 08:45:13;;;;;;;26.50;13.90;;;1.30;71.10;;;;;;6157512;23;20005;-69
2022/01/17 08:47:39;;;;;;;24.15;13.65;;;1.40;71.10;;;;;;6184166;23;20001;-70
2022/01/17 08:50:06;;;;;;;23.80;14.23;;;1.40;71.10;;;;;;6184206;23;20445;-69
2022/01/17 08:52:32;;;;;;;24.08;13.63;;;1.60;70.60;;;;;;6183975;23;20021;-68
2022/01/17 08:54:58;;;;;;;22.75;12.73;;;1.50;70.40;;;;;;6183908;23;20013;-68
2022/01/17 08:57:25;;;;;;;26.48;13.80;;;1.60;70.20;;;;;;6183705;23;20433;-69
2022/01/17 08:59:51;;;;;;;23.67;13.35;;;1.60;70.00;;;;;;6183651;23;20001;-68
2022/01/17 09:02:17;;;;;;;22.02;13.30;;;1.60;70.40;;;;;;6183697;23;20021;-68
2022/01/17 09:04:43;;;;;;;25.33;13.75;;;1.70;70.10;;;;;;6183567;23;20005;-69
2022/01/17 09:07:15;;;;;;;22.92;13.52;;;1.70;69.80;;;;;;6183563;23;20151;-69
2022/01/17 09:09:42;;;;;;;24.80;13.23;;;1.70;69.80;;;;;;6183721;23;20059;-70
2022/01/17 09:12:10;;;;;;;24.27;13.85;;;1.60;69.90;;;;;;6183742;23;20432;-68
2022/01/17 09:14:38;;;;;;;24.95;14.40;;;1.60;69.90;;;;;;6183559;23;20001;-68
2022/01/17 09:17:08;;;;;;;26.38;15.15;;;1.70;69.60;;;;;;6183722;23;20080;-69
2022/01/17 09:19:39;;;;;;;23.75;13.45;;;1.80;69.20;;;;;;6183679;23;20464;-68
2022/01/17 09:22:07;;;;;;;21.50;13.07;;;1.90;68.90;;;;;;6183656;23;20089;-69
2022/01/17 09:24:34;;;;;;;23.15;13.70;;;2.00;68.70;;;;;;6183619;23;20067;-68
2022/01/17 09:27:00;;;;;;;22.90;12.50;;;2.10;68.60;;;;;;6183441;23;20075;-67
2022/01/17 09:29:25;;;;;;;23.92;12.90;;;2.10;68.10;;;;;;6183381;23;20444;-69
2022/01/17 09:31:51;;;;;;;23.48;13.20;;;2.20;67.90;;;;;;6183511;23;20001;-68
2022/01/17 09:34:17;;;;;;;26.50;14.45;;;2.30;67.00;;;;;;6183466;23;20361;-68
2022/01/17 09:36:43;;;;;;;23.38;12.45;;;2.30;67.00;;;;;;6183143;23;20037;-67
2022/01/17 09:39:09;;;;;;;24.63;13.40;;;2.30;67.00;;;;;;6183287;23;19997;-69
2022/01/17 09:41:36;;;;;;;26.73;13.50;;;2.20;67.50;;;;;;6183512;23;20005;-68
2022/01/17 09:44:04;;;;;;;22.83;12.57;;;2.30;67.40;;;;;;6183388;23;20417;-68
2022/01/17 09:46:36;;;;;;;21.90;12.63;;;2.40;66.90;;;;;;6183493;23;20008;-69
2022/01/17 09:49:13;;;;;;;25.25;14.02;;;2.30;67.60;;;;;;6183501;23;20056;-68
2022/01/17 09:54:25;;;;;;;24.92;12.93;;;2.50;66.90;;;;;;6187683;23;20079;-69
2022/01/17 09:56:55;;;;;;;22.33;12.30;;;2.40;67.20;;;;;;6156791;23;20009;-68
2022/01/17 09:59:21;;;;;;;21.88;12.77;;;2.30;67.90;;;;;;6183447;23;20001;-68
2022/01/17 10:01:47;;;;;;;24.25;12.98;;;2.40;67.70;;;;;;6183353;23;20007;-69
2022/01/17 10:04:13;;;;;;;24.45;13.95;;;2.50;67.30;;;;;;6183496;23;20005;-68
2022/01/17 10:06:43;;;;;;;29.02;16.45;;;2.60;67.10;;;;;;6183392;23;20005;-70
2022/01/17 10:09:21;;;;;;;32.90;18.00;;;2.40;68.00;;;;;;6183183;23;20067;-68
2022/01/17 10:12:13;;;;;;;42.08;23.48;;;2.50;68.10;;;;;;6183433;23;20009;-69
2022/01/17 10:14:43;;;;;;;29.42;16.20;;;2.50;68.30;;;;;;6183508;23;20080;-68
2022/01/17 10:17:16;;;;;;;26.20;15.48;;;2.70;67.90;;;;;;6185115;23;20029;-68
2022/01/17 10:19:44;;;;;;;25.90;14.57;;;2.80;67.50;;;;;;6185455;23;20023;-69
2022/01/17 10:22:16;;;;;;;30.38;15.80;;;2.80;67.70;;;;;;6185428;23;20026;-68
2022/01/17 10:24:57;;;;;;;24.70;14.23;;;2.80;67.80;;;;;;6185390;23;20024;-67
2022/01/17 10:27:45;;;;;;;30.77;15.55;;;2.80;68.00;;;;;;6185445;23;20005;-68
2022/01/17 10:30:36;;;;;;;26.70;14.32;;;2.90;67.70;;;;;;6185021;23;20001;-68
2022/01/17 10:35:57;;;;;;;27.10;13.63;;;2.90;68.00;;;;;;6185144;23;20067;-69
2022/01/17 10:38:24;;;;;;;24.42;13.57;;;2.80;68.50;;;;;;6185228;23;20051;-69
2022/01/17 10:41:02;;;;;;;25.20;13.43;;;2.90;68.30;;;;;;6185046;23;20001;-69
2022/01/17 10:43:38;;;;;;;23.70;13.02;;;2.90;68.40;;;;;;6185216;23;20051;-68
2022/01/17 10:46:08;;;;;;;25.00;13.65;;;2.90;68.60;;;;;;6185081;23;20005;-67
2022/01/17 10:48:45;;;;;;;24.75;14.20;;;3.00;68.60;;;;;;6185070;23;20001;-68
2022/01/17 10:51:13;;;;;;;21.98;13.20;;;3.10;68.40;;;;;;6184854;23;20067;-68
2022/01/17 10:53:40;;;;;;;26.58;14.20;;;3.00;68.50;;;;;;6184920;23;20005;-68
2022/01/17 10:56:10;;;;;;;23.00;12.82;;;3.10;68.60;;;;;;6185056;23;20001;-67
2022/01/17 10:58:38;;;;;;;21.35;12.90;;;3.00;68.60;;;;;;6184857;23;20021;-69
2022/01/17 11:01:22;;;;;;;20.92;13.02;;;2.90;69.00;;;;;;6185227;23;19997;-69
2022/01/17 11:03:48;;;;;;;23.13;13.20;;;2.90;69.40;;;;;;6184956;23;20354;-68
2022/01/17 11:06:19;;;;;;;23.00;12.93;;;3.00;69.40;;;;;;6184807;23;20060;-67
2022/01/17 11:08:46;;;;;;;24.40;13.68;;;2.90;69.50;;;;;;6184957;23;20488;-68
2022/01/17 11:11:12;;;;;;;22.85;13.05;;;2.90;69.70;;;;;;6184885;23;20051;-69
2022/01/17 11:13:42;;;;;;;22.08;13.23;;;3.00;69.60;;;;;;6184810;23;20001;-68
2022/01/17 11:16:11;;;;;;;23.10;12.50;;;2.80;70.30;;;;;;6184943;23;20004;-68
2022/01/17 11:18:41;;;;;;;24.60;14.60;;;2.90;70.40;;;;;;6158227;23;20005;-67
2022/01/17 11:21:14;;;;;;;26.33;14.18;;;2.80;70.70;;;;;;6184802;23;20004;-69
2022/01/17 11:23:43;;;;;;;24.45;13.48;;;2.90;70.70;;;;;;6184846;23;20001;-69
2022/01/17 11:26:10;;;;;;;26.05;14.68;;;2.80;71.10;;;;;;6184764;23;20052;-68
2022/01/17 11:28:37;;;;;;;28.52;15.00;;;2.80;71.40;;;;;;6184362;23;20001;-68
2022/01/17 11:31:07;;;;;;;24.73;14.38;;;2.80;71.60;;;;;;6184735;23;20012;-67
2022/01/17 11:33:34;;;;;;;26.83;14.55;;;2.70;71.70;;;;;;6184569;23;20025;-68
2022/01/17 11:36:00;;;;;;;24.92;14.50;;;2.90;71.70;;;;;;6184475;23;20084;-67
2022/01/17 11:38:27;;;;;;;24.50;14.02;;;2.80;71.80;;;;;;6184381;23;20366;-67
2022/01/17 11:40:54;;;;;;;21.90;13.38;;;3.00;71.80;;;;;;6184422;23;20370;-68
2022/01/17 11:43:33;;;;;;;21.90;13.60;;;3.00;71.60;;;;;;6184631;23;20012;-67
2022/01/17 11:46:00;;;;;;;24.30;13.73;;;3.00;71.90;;;;;;6184344;23;20004;-67
2022/01/17 11:48:32;;;;;;;24.17;13.95;;;3.00;71.90;;;;;;6184538;23;20001;-67
2022/01/17 11:51:19;;;;;;;24.80;13.82;;;3.00;71.70;;;;;;6184297;23;20001;-68
2022/01/17 11:53:46;;;;;;;27.60;15.27;;;3.10;71.90;;;;;;6184128;23;20017;-68
2022/01/17 11:56:47;;;;;;;25.80;14.40;;;3.10;72.00;;;;;;6184624;23;20029;-68
2022/01/17 11:59:25;;;;;;;26.38;13.75;;;3.00;72.20;;;;;;6176717;23;20005;-68
2022/01/17 12:02:20;;;;;;;24.42;14.10;;;3.10;72.40;;;;;;6184501;23;20001;-68
2022/01/17 12:05:07;;;;;;;23.13;13.07;;;3.10;72.30;;;;;;6184337;23;20008;-66
2022/01/17 12:07:36;;;;;;;24.98;13.75;;;3.10;72.60;;;;;;6184322;23;20025;-66
2022/01/17 12:10:20;;;;;;;24.75;13.73;;;3.10;72.80;;;;;;6184358;23;20001;-68
2022/01/17 12:13:10;;;;;;;23.45;13.23;;;3.20;72.70;;;;;;6184235;23;20005;-67
2022/01/17 12:15:58;;;;;;;23.52;13.70;;;3.20;72.90;;;;;;6184351;23;20016;-67
2022/01/17 12:18:28;;;;;;;23.13;13.38;;;3.30;72.70;;;;;;6157739;23;20001;-68
2022/01/17 12:20:54;;;;;;;20.85;12.68;;;3.20;72.90;;;;;;6184263;23;20025;-67
2022/01/17 12:23:25;;;;;;;24.48;13.15;;;3.10;73.10;;;;;;6183947;23;20306;-68
2022/01/17 12:25:51;;;;;;;23.65;13.27;;;3.10;73.40;;;;;;6184339;23;20324;-69
2022/01/17 12:28:17;;;;;;;21.02;12.85;;;3.00;73.50;;;;;;6184277;23;20029;-68
2022/01/17 12:30:47;;;;;;;22.02;13.05;;;3.00;73.90;;;;;;6183956;23;20413;-67
2022/01/17 12:33:34;;;;;;;23.33;13.25;;;3.00;73.90;;;;;;6183969;23;20078;-67
2022/01/17 12:36:03;;;;;;;22.98;12.98;;;3.00;74.10;;;;;;6183902;23;20020;-67
2022/01/17 12:38:40;;;;;;;24.50;13.45;;;3.20;73.70;;;;;;6183866;23;20049;-67
2022/01/17 12:41:26;;;;;;;22.25;14.00;;;3.20;73.60;;;;;;6183992;23;20029;-67
2022/01/17 12:43:52;;;;;;;21.73;12.93;;;3.20;74.00;;;;;;6183743;23;20001;-67
2022/01/17 12:46:19;;;;;;;21.83;13.13;;;3.10;74.20;;;;;;6183765;23;20005;-67
2022/01/17 12:48:48;;;;;;;23.05;13.60;;;3.10;74.30;;;;;;6183756;23;20058;-67
2022/01/17 12:51:14;;;;;;;24.35;13.52;;;3.10;74.50;;;;;;6183810;23;20009;-67
2022/01/17 12:53:49;;;;;;;22.50;13.13;;;3.10;74.70;;;;;;6183828;23;20005;-67
2022/01/17 12:56:14;;;;;;;23.65;12.80;;;3.10;74.80;;;;;;6184101;23;20044;-66